createdAt,value
2022-11-29T00:02:25.295Z,14.32
2022-11-29T00:04:58.456Z,14.88
2022-11-29T00:07:29.092Z,15.13
2022-11-29T00:10:00.442Z,15.43
2022-11-29T00:12:31.149Z,13.73
2022-11-29T00:15:01.369Z,14.90
2022-11-29T00:17:31.934Z,13.55
2022-11-29T00:20:02.879Z,13.52
2022-11-29T00:22:33.369Z,12.93
2022-11-29T00:25:04.295Z,12.60
2022-11-29T00:27:35.015Z,14.15
2022-11-29T00:30:06.019Z,13.45
2022-11-29T00:32:37.381Z,15.77
2022-11-29T00:35:13.324Z,16.27
2022-11-29T00:37:43.889Z,17.83
2022-11-29T00:40:14.514Z,17.25
2022-11-29T00:42:48.245Z,17.08
2022-11-29T00:45:18.765Z,14.82
2022-11-29T00:47:49.327Z,15.10
2022-11-29T00:50:28.930Z,15.90
2022-11-29T00:52:59.457Z,14.77
2022-11-29T00:55:30.396Z,15.82
2022-11-29T00:58:00.992Z,18.10
2022-11-29T01:00:31.759Z,15.90
2022-11-29T01:03:03.352Z,15.82
2022-11-29T01:05:34.688Z,15.10
2022-11-29T01:08:06.063Z,14.07
2022-11-29T01:10:36.670Z,13.48
2022-11-29T01:13:07.661Z,15.10
2022-11-29T01:15:38.427Z,15.77
2022-11-29T01:18:09.494Z,12.20
2022-11-29T01:20:39.909Z,12.13
2022-11-29T01:23:10.446Z,7.32
2022-11-29T01:25:40.891Z,7.63
2022-11-29T01:28:11.425Z,7.57
2022-11-29T01:30:41.913Z,8.93
2022-11-29T01:33:12.719Z,6.57
2022-11-29T01:35:52.090Z,8.02
2022-11-29T01:38:25.435Z,6.82
2022-11-29T01:41:05.107Z,8.45
2022-11-29T01:43:52.314Z,10.15
2022-11-29T01:46:25.293Z,10.70
2022-11-29T01:48:58.524Z,9.50
2022-11-29T01:51:30.108Z,8.95
2022-11-29T01:54:03.013Z,9.57
2022-11-29T01:56:35.028Z,9.27
2022-11-29T01:59:09.394Z,10.18
2022-11-29T02:01:40.538Z,10.63
2022-11-29T02:04:12.164Z,9.80
2022-11-29T02:06:43.131Z,8.93
2022-11-29T02:09:21.643Z,10.70
2022-11-29T02:12:03.880Z,9.82
2022-11-29T02:15:09.013Z,9.95
2022-11-29T02:17:55.780Z,8.32
2022-11-29T02:21:02.441Z,7.85
2022-11-29T02:24:05.591Z,8.32
2022-11-29T02:26:57.363Z,11.52
2022-11-29T02:30:01.317Z,7.97
2022-11-29T02:32:50.014Z,9.15
2022-11-29T02:35:53.908Z,9.38
2022-11-29T02:38:24.242Z,9.88
2022-11-29T02:41:07.287Z,8.48
2022-11-29T02:44:14.083Z,8.98
2022-11-29T02:46:51.456Z,7.57
2022-11-29T02:49:39.899Z,8.48
2022-11-29T02:52:34.231Z,8.57
2022-11-29T02:55:49.507Z,8.05
2022-11-29T02:58:37.607Z,8.18
2022-11-29T03:01:23.101Z,8.93
2022-11-29T03:03:56.450Z,9.88
2022-11-29T03:06:55.615Z,9.00
2022-11-29T03:09:32.255Z,8.40
2022-11-29T03:12:05.606Z,6.60
2022-11-29T03:15:03.468Z,5.72
2022-11-29T03:18:24.771Z,5.10
2022-11-29T03:21:20.701Z,5.65
2022-11-29T03:23:58.908Z,5.43
2022-11-29T03:27:00.517Z,5.38
2022-11-29T03:29:55.681Z,5.63
2022-11-29T03:32:42.012Z,5.57
2022-11-29T03:35:57.118Z,6.30
2022-11-29T03:38:46.936Z,5.90
2022-11-29T03:41:19.973Z,6.47
2022-11-29T03:44:28.067Z,7.03
2022-11-29T03:47:06.292Z,7.13
2022-11-29T03:50:12.002Z,7.68
2022-11-29T03:52:54.032Z,8.80
2022-11-29T03:56:11.369Z,7.22
2022-11-29T03:58:51.514Z,6.47
2022-11-29T04:01:43.867Z,6.70
2022-11-29T04:04:27.014Z,7.10
2022-11-29T04:07:12.594Z,4.90
2022-11-29T04:10:05.623Z,5.65
2022-11-29T04:13:10.602Z,6.05
2022-11-29T04:16:08.542Z,5.30
2022-11-29T04:18:58.671Z,7.35
2022-11-29T04:21:35.577Z,5.18
2022-11-29T04:24:27.759Z,5.38
2022-11-29T04:27:12.862Z,5.55
2022-11-29T04:29:52.359Z,5.05
2022-11-29T04:32:44.017Z,5.25
2022-11-29T04:35:20.442Z,5.63
2022-11-29T04:38:02.450Z,6.85
2022-11-29T04:40:44.246Z,5.97
2022-11-29T04:43:41.252Z,5.20
2022-11-29T04:46:21.432Z,5.45
2022-11-29T04:48:54.457Z,5.28
2022-11-29T04:51:33.386Z,4.85
2022-11-29T04:54:12.559Z,4.70
2022-11-29T04:56:45.195Z,5.55
2022-11-29T04:59:54.041Z,4.85
2022-11-29T05:02:34.202Z,5.35
2022-11-29T05:05:29.241Z,5.18
2022-11-29T05:08:26.516Z,5.05
2022-11-29T05:11:26.344Z,5.40
2022-11-29T05:14:00.678Z,6.28
2022-11-29T05:16:49.762Z,6.28
2022-11-29T05:19:35.236Z,9.15
2022-11-29T05:22:26.568Z,6.55
2022-11-29T05:25:02.172Z,6.85
2022-11-29T05:28:04.469Z,5.25
2022-11-29T05:31:06.114Z,5.15
2022-11-29T05:34:13.311Z,4.50
2022-11-29T05:37:10.424Z,5.68
2022-11-29T05:39:59.666Z,6.00
2022-11-29T05:42:40.522Z,5.38
2022-11-29T05:45:25.082Z,4.97
2022-11-29T05:48:26.622Z,8.98
2022-11-29T05:51:07.291Z,5.25
2022-11-29T05:53:48.953Z,4.82
2022-11-29T05:56:49.453Z,5.40
2022-11-29T05:59:26.001Z,4.75
2022-11-29T06:02:30.682Z,5.03
2022-11-29T06:05:32.620Z,5.45
2022-11-29T06:08:35.221Z,5.00
2022-11-29T06:11:28.640Z,11.80
2022-11-29T06:14:21.821Z,4.20
2022-11-29T06:16:53.013Z,4.30
2022-11-29T06:19:54.045Z,4.43
2022-11-29T06:22:35.258Z,4.47
2022-11-29T06:26:03.688Z,4.95
2022-11-29T06:28:56.808Z,5.10
2022-11-29T06:31:34.813Z,4.78
2022-11-29T06:34:11.362Z,4.38
2022-11-29T06:37:04.205Z,4.93
2022-11-29T06:39:35.957Z,4.25
2022-11-29T06:42:06.863Z,5.00
2022-11-29T06:44:37.939Z,6.07
2022-11-29T06:47:32.384Z,7.57
2022-11-29T06:50:26.124Z,7.53
2022-11-29T06:53:17.494Z,6.18
2022-11-29T06:56:00.019Z,6.22
2022-11-29T06:58:36.383Z,5.93
2022-11-29T07:01:28.591Z,4.95
2022-11-29T07:04:52.610Z,5.93
2022-11-29T07:07:25.236Z,6.47
2022-11-29T07:10:00.472Z,7.60
2022-11-29T07:12:31.683Z,6.45
2022-11-29T07:15:02.571Z,7.63
2022-11-29T07:17:41.044Z,5.53
2022-11-29T07:20:23.680Z,7.38
2022-11-29T07:23:15.303Z,7.38
2022-11-29T07:25:51.192Z,6.35
2022-11-29T07:28:27.695Z,5.85
2022-11-29T07:31:31.783Z,5.43
2022-11-29T07:34:19.977Z,6.85
2022-11-29T07:37:12.616Z,6.57
2022-11-29T07:40:04.933Z,5.47
2022-11-29T07:42:45.258Z,5.95
2022-11-29T07:45:27.731Z,5.35
2022-11-29T07:47:58.212Z,6.28
2022-11-29T07:50:29.417Z,5.50
2022-11-29T07:53:01.071Z,6.28
2022-11-29T07:55:33.368Z,6.40
2022-11-29T07:58:06.737Z,5.97
2022-11-29T08:00:37.413Z,5.10
2022-11-29T08:03:07.782Z,8.60
2022-11-29T08:05:39.602Z,7.53
2022-11-29T08:08:10.733Z,7.05
2022-11-29T08:10:42.060Z,7.78
2022-11-29T08:13:12.819Z,6.70
2022-11-29T08:15:46.852Z,3.75
2022-11-29T08:18:17.794Z,3.72
2022-11-29T08:20:48.876Z,3.75
2022-11-29T08:23:19.145Z,3.53
2022-11-29T08:25:50.338Z,3.42
2022-11-29T08:28:20.632Z,3.67
2022-11-29T08:30:51.193Z,2.75
2022-11-29T08:33:21.455Z,6.32
2022-11-29T08:35:51.963Z,4.00
2022-11-29T08:38:25.054Z,7.38
2022-11-29T08:40:57.931Z,10.75
2022-11-29T08:43:29.186Z,11.10
2022-11-29T08:46:00.949Z,8.73
2022-11-29T08:48:31.869Z,10.85
2022-11-29T08:51:02.871Z,8.90
2022-11-29T08:53:42.572Z,9.23
2022-11-29T08:57:04.534Z,9.57
2022-11-29T08:59:07.569Z,7.93
2022-11-29T09:01:37.949Z,9.73
2022-11-29T09:04:11.591Z,8.95
2022-11-29T09:06:46.367Z,11.05
2022-11-29T09:09:17.420Z,10.05
2022-11-29T09:11:49.562Z,12.48
2022-11-29T09:14:23.168Z,11.27
2022-11-29T09:16:53.992Z,10.90
2022-11-29T09:19:28.378Z,11.02
2022-11-29T09:22:02.298Z,12.27
2022-11-29T09:24:35.286Z,6.50
2022-11-29T09:27:05.602Z,4.55
2022-11-29T09:29:36.209Z,4.93
2022-11-29T09:32:07.698Z,9.82
2022-11-29T09:34:38.448Z,4.90
2022-11-29T09:37:08.962Z,6.05
2022-11-29T09:39:41.188Z,5.78
2022-11-29T09:42:32.656Z,5.15
2022-11-29T09:45:03.263Z,6.45
2022-11-29T09:47:40.670Z,7.47
2022-11-29T09:50:44.144Z,5.80
2022-11-29T09:53:48.455Z,6.53
2022-11-29T09:56:46.141Z,5.53
2022-11-29T09:59:43.760Z,6.45
2022-11-29T10:02:35.489Z,6.30
2022-11-29T10:05:50.705Z,6.65
2022-11-29T10:08:34.923Z,5.53
2022-11-29T10:11:18.888Z,6.18
2022-11-29T10:13:55.180Z,8.45
2022-11-29T10:16:34.796Z,7.13
2022-11-29T10:19:44.470Z,12.85
2022-11-29T10:22:14.869Z,30.65
2022-11-29T10:24:48.657Z,21.30
2022-11-29T10:27:22.163Z,10.23
2022-11-29T10:29:53.548Z,8.07
2022-11-29T10:32:25.809Z,19.63
2022-11-29T10:34:58.505Z,7.88
2022-11-29T10:37:33.657Z,13.60
2022-11-29T10:40:09.032Z,11.55
2022-11-29T10:42:55.087Z,14.50
2022-11-29T10:45:31.605Z,19.70
2022-11-29T10:48:12.026Z,14.60
2022-11-29T10:50:45.051Z,18.63
2022-11-29T10:53:25.137Z,16.60
2022-11-29T10:56:07.254Z,20.38
2022-11-29T10:58:38.431Z,27.40
2022-11-29T11:01:10.213Z,26.05
2022-11-29T11:03:43.109Z,21.88
2022-11-29T11:06:19.973Z,21.90
2022-11-29T11:08:56.919Z,17.90
2022-11-29T11:11:33.533Z,18.10
2022-11-29T11:14:28.633Z,23.15
2022-11-29T11:17:27.158Z,28.98
2022-11-29T11:20:06.623Z,20.15
2022-11-29T11:22:40.783Z,21.50
2022-11-29T11:25:29.835Z,22.98
2022-11-29T11:28:14.692Z,30.05
2022-11-29T11:30:59.052Z,23.75
2022-11-29T11:33:32.252Z,21.80
2022-11-29T11:36:10.799Z,20.08
2022-11-29T11:39:13.053Z,18.25
2022-11-29T11:42:02.541Z,18.77
2022-11-29T11:44:49.216Z,23.52
2022-11-29T11:47:28.260Z,19.40
2022-11-29T11:50:13.557Z,21.33
2022-11-29T11:52:54.163Z,21.40
2022-11-29T11:55:38.318Z,25.48
2022-11-29T11:58:14.806Z,28.48
2022-11-29T12:01:07.587Z,38.38
2022-11-29T12:04:01.037Z,32.97
2022-11-29T12:06:31.355Z,27.00
2022-11-29T12:09:27.690Z,25.00
2022-11-29T12:12:21.969Z,24.52
2022-11-29T12:14:57.598Z,24.48
2022-11-29T12:17:39.494Z,22.42
2022-11-29T12:20:29.511Z,24.90
2022-11-29T12:23:16.068Z,27.05
2022-11-29T12:26:07.202Z,18.52
2022-11-29T12:28:41.780Z,19.40
2022-11-29T12:31:18.346Z,19.83
2022-11-29T12:34:15.776Z,20.55
2022-11-29T12:37:11.340Z,16.95
2022-11-29T12:39:59.550Z,18.92
2022-11-29T12:43:01.031Z,19.40
2022-11-29T12:45:36.832Z,28.35
2022-11-29T12:48:44.078Z,24.40
2022-11-29T12:51:37.079Z,17.75
2022-11-29T12:54:21.800Z,18.98
2022-11-29T12:57:44.210Z,19.35
2022-11-29T13:00:20.398Z,19.98
2022-11-29T13:02:51.221Z,19.25
2022-11-29T13:05:44.767Z,22.98
2022-11-29T13:08:34.709Z,21.65
2022-11-29T13:11:10.593Z,20.92
2022-11-29T13:14:03.808Z,21.80
2022-11-29T13:17:06.846Z,20.88
2022-11-29T13:19:46.136Z,21.52
2022-11-29T13:22:29.445Z,20.38
2022-11-29T13:25:05.578Z,22.13
2022-11-29T13:27:42.050Z,19.35
2022-11-29T13:30:16.694Z,19.55
2022-11-29T13:32:52.914Z,18.25
2022-11-29T13:35:35.836Z,16.90
2022-11-29T13:38:35.514Z,17.63
2022-11-29T13:41:28.958Z,16.38
2022-11-29T13:44:26.536Z,17.45
2022-11-29T13:47:10.674Z,14.57
2022-11-29T13:50:03.398Z,14.57
2022-11-29T13:52:43.395Z,13.55
2022-11-29T13:55:29.542Z,13.23
2022-11-29T13:58:20.936Z,14.35
2022-11-29T14:00:53.180Z,15.07
2022-11-29T14:03:31.033Z,14.32
2022-11-29T14:06:13.692Z,15.45
2022-11-29T14:11:44.900Z,15.30
2022-11-29T14:14:18.039Z,14.73
2022-11-29T14:16:52.309Z,16.42
2022-11-29T14:19:27.627Z,17.17
2022-11-29T14:22:09.045Z,17.02
2022-11-29T14:24:50.307Z,16.80
2022-11-29T14:27:31.681Z,14.32
2022-11-29T14:30:32.192Z,19.30
2022-11-29T14:33:50.453Z,25.88
2022-11-29T14:36:57.663Z,21.42
2022-11-29T14:39:49.617Z,16.75
2022-11-29T14:42:41.027Z,16.33
2022-11-29T14:45:32.925Z,13.40
2022-11-29T14:48:14.149Z,14.20
2022-11-29T14:51:21.891Z,12.55
2022-11-29T14:54:23.807Z,12.88
2022-11-29T14:56:58.530Z,11.98
2022-11-29T14:59:50.465Z,11.90
2022-11-29T15:06:01.996Z,9.75
2022-11-29T15:09:15.716Z,9.45
2022-11-29T15:12:31.845Z,9.82
2022-11-29T15:15:40.405Z,11.02
2022-11-29T15:18:52.494Z,10.25
2022-11-29T15:22:15.579Z,9.88
2022-11-29T15:25:02.298Z,10.75
2022-11-29T15:27:50.401Z,9.57
2022-11-29T15:30:32.965Z,10.70
2022-11-29T15:33:13.223Z,10.73
2022-11-29T15:35:57.506Z,9.82
2022-11-29T15:38:33.692Z,10.63
2022-11-29T15:41:12.417Z,11.00
2022-11-29T15:44:10.112Z,12.55
2022-11-29T15:46:43.924Z,11.88
2022-11-29T15:49:33.763Z,11.32
2022-11-29T15:52:20.071Z,11.25
2022-11-29T15:55:03.425Z,10.75
2022-11-29T15:57:41.256Z,11.40
2022-11-29T16:00:28.786Z,11.70
2022-11-29T16:03:14.841Z,11.98
2022-11-29T16:05:59.703Z,11.02
2022-11-29T16:08:47.884Z,12.55
2022-11-29T16:11:28.921Z,11.07
2022-11-29T16:14:34.196Z,12.15
2022-11-29T16:17:23.463Z,11.80
2022-11-29T16:20:25.625Z,10.80
2022-11-29T16:23:40.661Z,12.05
2022-11-29T16:26:46.762Z,12.07
2022-11-29T16:29:41.596Z,12.43
2022-11-29T16:32:36.815Z,12.25
2022-11-29T16:35:38.461Z,11.82
2022-11-29T16:38:48.845Z,12.23
2022-11-29T16:41:48.694Z,12.18
2022-11-29T16:44:56.104Z,12.70
2022-11-29T16:48:00.026Z,12.73
2022-11-29T16:50:58.896Z,12.07
2022-11-29T16:53:57.756Z,12.05
2022-11-29T16:56:39.750Z,11.52
2022-11-29T16:59:27.594Z,12.68
2022-11-29T17:02:17.402Z,11.68
2022-11-29T17:04:56.570Z,12.20
2022-11-29T17:07:40.176Z,11.40
2022-11-29T17:10:20.369Z,11.23
2022-11-29T17:12:53.598Z,10.25
2022-11-29T17:15:26.000Z,10.18
2022-11-29T17:17:58.948Z,9.00
2022-11-29T17:20:31.855Z,8.20
2022-11-29T17:23:05.979Z,8.32
2022-11-29T17:25:38.407Z,7.80
2022-11-29T17:28:11.129Z,6.78
2022-11-29T17:30:43.532Z,7.20
2022-11-29T17:33:17.204Z,6.63
2022-11-29T17:35:50.203Z,6.13
2022-11-29T17:38:22.816Z,5.63
2022-11-29T17:40:55.430Z,5.70
2022-11-29T17:43:29.073Z,5.75
2022-11-29T17:46:12.924Z,5.53
2022-11-29T17:48:48.716Z,6.03
2022-11-29T17:51:50.548Z,5.60
2022-11-29T17:54:20.467Z,5.50
2022-11-29T17:56:53.664Z,5.32
2022-11-29T17:59:28.037Z,6.35
2022-11-29T18:02:00.666Z,6.95
2022-11-29T18:04:38.869Z,8.13
2022-11-29T18:07:11.786Z,7.90
2022-11-29T18:09:44.447Z,7.95
2022-11-29T18:12:17.236Z,6.97
2022-11-29T18:14:53.850Z,6.70
2022-11-29T18:17:26.649Z,6.18
2022-11-29T18:19:59.294Z,6.57
2022-11-29T18:22:31.956Z,6.97
2022-11-29T18:25:30.753Z,6.38
2022-11-29T18:27:57.225Z,6.88
2022-11-29T18:30:30.291Z,6.50
2022-11-29T18:33:02.834Z,6.63
2022-11-29T18:35:35.424Z,6.30
2022-11-29T18:38:16.423Z,5.88
2022-11-29T18:40:49.225Z,5.60
2022-11-29T18:43:21.781Z,7.35
2022-11-29T18:45:57.756Z,6.22
2022-11-29T18:48:32.648Z,6.63
2022-11-29T18:51:08.523Z,6.03
2022-11-29T18:53:41.376Z,4.88
2022-11-29T18:56:17.092Z,5.13
2022-11-29T18:58:58.199Z,5.13
2022-11-29T19:01:33.176Z,5.75
2022-11-29T19:04:05.405Z,5.80
2022-11-29T19:06:39.942Z,5.22
2022-11-29T19:09:17.692Z,6.25
2022-11-29T19:11:53.057Z,6.47
2022-11-29T19:14:25.360Z,5.85
2022-11-29T19:16:57.728Z,6.60
2022-11-29T19:19:34.234Z,6.80
2022-11-29T19:22:06.812Z,6.50
2022-11-29T19:24:39.197Z,6.65
2022-11-29T19:27:12.060Z,7.07
2022-11-29T19:29:44.363Z,6.78
2022-11-29T19:32:16.564Z,7.00
2022-11-29T19:34:49.463Z,6.53
2022-11-29T19:37:22.304Z,7.40
2022-11-29T19:39:55.120Z,7.90
2022-11-29T19:42:28.083Z,7.78
2022-11-29T19:45:19.482Z,8.10
2022-11-29T19:47:50.956Z,9.50
2022-11-29T19:50:21.594Z,9.75
2022-11-29T19:52:52.415Z,10.57
2022-11-29T19:55:23.095Z,12.15
2022-11-29T19:57:54.327Z,12.20
2022-11-29T20:00:24.882Z,12.77
2022-11-29T20:02:56.178Z,13.38
2022-11-29T20:05:28.153Z,12.15
2022-11-29T20:07:58.469Z,12.77
2022-11-29T20:10:29.210Z,12.00
2022-11-29T20:12:59.553Z,11.95
2022-11-29T20:15:30.281Z,12.05
2022-11-29T20:18:04.025Z,11.32
2022-11-29T20:20:35.250Z,11.13
2022-11-29T20:23:06.004Z,9.50
2022-11-29T20:25:37.323Z,10.95
2022-11-29T20:28:07.994Z,10.82
2022-11-29T20:30:38.561Z,10.25
2022-11-29T20:33:10.664Z,10.38
2022-11-29T20:35:41.777Z,9.63
2022-11-29T20:38:35.602Z,9.52
2022-11-29T20:41:22.341Z,10.20
2022-11-29T20:44:33.536Z,10.57
2022-11-29T20:48:12.120Z,10.70
2022-11-29T20:50:45.587Z,9.82
2022-11-29T20:53:30.930Z,9.85
2022-11-29T20:56:01.666Z,9.90
2022-11-29T20:58:32.443Z,8.57
2022-11-29T21:01:04.893Z,7.75
2022-11-29T21:03:35.877Z,7.05
2022-11-29T21:06:07.578Z,7.30
2022-11-29T21:08:38.717Z,7.97
2022-11-29T21:11:11.230Z,7.75
2022-11-29T21:13:42.650Z,8.88
2022-11-29T21:16:14.455Z,9.15
2022-11-29T21:18:45.452Z,9.70
2022-11-29T21:21:30.628Z,9.23
2022-11-29T21:24:04.851Z,8.73
2022-11-29T21:26:44.338Z,8.70
2022-11-29T21:29:22.137Z,9.18
2022-11-29T21:31:54.884Z,8.88
2022-11-29T21:34:25.104Z,10.02
2022-11-29T21:36:58.546Z,10.13
2022-11-29T21:39:35.702Z,11.70
2022-11-29T21:42:06.667Z,11.13
2022-11-29T21:44:37.256Z,12.52
2022-11-29T21:47:08.741Z,12.75
2022-11-29T21:49:39.081Z,12.10
2022-11-29T21:52:09.572Z,12.82
2022-11-29T21:54:41.023Z,12.90
2022-11-29T21:57:14.204Z,13.07
2022-11-29T21:59:47.770Z,12.60
2022-11-29T22:02:18.047Z,11.85
2022-11-29T22:04:49.383Z,11.82
2022-11-29T22:07:20.381Z,12.25
2022-11-29T22:09:53.756Z,12.05
2022-11-29T22:12:34.194Z,11.50
2022-11-29T22:15:09.279Z,11.23
2022-11-29T22:17:39.764Z,12.18
2022-11-29T22:20:10.161Z,13.80
2022-11-29T22:22:40.854Z,13.20
2022-11-29T22:25:13.598Z,11.35
2022-11-29T22:27:43.895Z,12.50
2022-11-29T22:30:14.683Z,11.25
2022-11-29T22:32:45.484Z,8.15
2022-11-29T22:35:15.918Z,8.38
2022-11-29T22:37:49.467Z,7.82
2022-11-29T22:40:20.580Z,7.22
2022-11-29T22:42:51.514Z,7.03
2022-11-29T22:45:24.796Z,6.28
2022-11-29T22:47:56.517Z,7.60
2022-11-29T22:50:27.734Z,8.60
2022-11-29T22:52:58.285Z,8.32
2022-11-29T22:55:28.828Z,7.38
2022-11-29T22:58:02.352Z,7.47
2022-11-29T23:00:33.394Z,7.78
2022-11-29T23:03:03.928Z,7.80
2022-11-29T23:05:34.652Z,8.30
2022-11-29T23:08:05.074Z,8.52
2022-11-29T23:10:37.589Z,8.50
2022-11-29T23:13:08.421Z,9.82
2022-11-29T23:15:39.015Z,11.00
2022-11-29T23:18:12.115Z,11.00
2022-11-29T23:20:42.671Z,12.02
2022-11-29T23:23:13.195Z,10.63
2022-11-29T23:25:51.142Z,9.32
2022-11-29T23:28:21.370Z,9.05
2022-11-29T23:30:52.612Z,9.75
2022-11-29T23:33:25.120Z,9.48
2022-11-29T23:36:04.105Z,9.60
2022-11-29T23:38:35.343Z,8.32
2022-11-29T23:41:07.465Z,7.90
2022-11-29T23:43:38.990Z,7.70
2022-11-29T23:46:12.932Z,8.70
2022-11-29T23:48:43.910Z,8.88
2022-11-29T23:51:15.278Z,6.53
2022-11-29T23:53:47.674Z,6.28
2022-11-29T23:56:18.950Z,7.55
2022-11-29T23:58:49.781Z,8.60
